Cruise inventory

RV Corystes COR4/88

Cruise summary report

Cruise Info. 
Ship name (ship code)RV Corystes (74RY)
Cruise identifierCOR4/88
Cruise period1988-07-07 — 1988-07-20
StatusCompleted
Port of departureLowestoft, United Kingdom
Port of returnLowestoft, United Kingdom
Objectives1. To collect water and sediment samples for a study of scavenging using U/Th disequilibrium data.
2. To work a series of 25 anchor stations (CTD and DRCM) at four locations along the coast, with the KBVR deployed. Suspended load and particle size measurements will be made over the tidal cycle at 10m intervals above the bed.
3. To investigate settling velocity near the sea bed using QUISSET (U. Cambridge).
4. To use the diving team at the final anchor station to measure bed roughness using an acoustic backscatter probe.
5. To deploy the NBVR for recovery in September. The NBVR was not deployed for a long period due to difficulties in locating a suitable substrate.
6. To work a grid of CTD stations around the moorings E-M launched by RV Cirolana as part of the Flamborough Front Experiment.
7. To collect samples of plankton for a study of Nephrops larvae (for J Nichols).
Chief scientistSteven M Rowlatt (Ministry of Agriculture, Fisheries and Food Burnham Laboratory)
Cruise reportRV Corystes COR4/88 cruise report co4_88.pdf — access key 'C' (0.13 MB) 
Ocean/sea areas 
GeneralNorth Sea
SpecificN.E. English coast
Measurements 
Physical oceanography 
Water bottle stationsQuantity: number of stations = 22
Description: of which 4 were anchor stations
CTD stationsQuantity: number of stations = 91
Description: profiles
Surface drifters/drifting buoysQuantity: number of samples = 900
Description: surface
Other physical oceanographic measurementsQuantity: number of deployments = 4
Description: near bed velocity recorder
Contamination 
Suspended matterQuantity: number of stations = 9
Biology and fisheries 
PhytoplanktonQuantity: number of stations = 12
ZooplanktonQuantity: number of stations = 12
Geology and geophysics 
GrabQuantity: number of samples = 37
Core - soft bottomQuantity: number of cores = 13
Data held at BODC 
Series/Profiles 
92  CTD/STD cast
Vertical spatial coordinates
Salinity of the water column
Temperature of the water column
Vertical spatial coordinates
Salinity of the water column
Temperature of the water column

BODC idDate/TimeLocationDoc.
2483071988-07-15 11:54 55° 3' 29" N  1° 21' 6" W  View metadata report for BODC series reference number 248307
2483191988-07-15 16:54 54° 54' 29" N  1° 15' 47" W  View metadata report for BODC series reference number 248319
2483201988-07-15 17:48 54° 51' 29" N  1° 14' 5" W  View metadata report for BODC series reference number 248320
2483321988-07-19 06:17 54° 33' 6" N  0° 43' 47" W  View metadata report for BODC series reference number 248332
2483441988-07-19 06:52 54° 34' 36" N  0° 42' 47" W  View metadata report for BODC series reference number 248344
2483561988-07-19 07:40 54° 36' 29" N  0° 41' 23" W  View metadata report for BODC series reference number 248356
2483681988-07-19 07:50 54° 38' 24" N  0° 39' 54" W  View metadata report for BODC series reference number 248368
2483811988-07-19 08:30 54° 40' 0" N  0° 38' 30" W  View metadata report for BODC series reference number 248381
2483931988-07-19 08:50 54° 41' 48" N  0° 36' 47" W  View metadata report for BODC series reference number 248393
2484001988-07-19 09:14 54° 43' 30" N  0° 35' 23" W  View metadata report for BODC series reference number 248400
2484121988-07-19 09:38 54° 45' 11" N  0° 34' 0" W  View metadata report for BODC series reference number 248412
2484241988-07-19 10:05 54° 46' 41" N  0° 32' 30" W  View metadata report for BODC series reference number 248424
2484361988-07-11 20:30 54° 56' 48" N  1° 16' 59" W  View metadata report for BODC series reference number 248436
2476421988-07-12 10:30 54° 56' 48" N  1° 16' 59" W  View metadata report for BODC series reference number 247642
2476541988-07-12 11:31 54° 56' 48" N  1° 16' 59" W  View metadata report for BODC series reference number 247654
2476661988-07-12 12:34 54° 56' 48" N  1° 16' 59" W  View metadata report for BODC series reference number 247666
2476781988-07-12 13:28 54° 56' 48" N  1° 16' 59" W  View metadata report for BODC series reference number 247678
2476911988-07-13 16:38 55° 15' 47" N  1° 29' 30" W  View metadata report for BODC series reference number 247691
2477091988-07-13 17:32 55° 15' 47" N  1° 29' 30" W  View metadata report for BODC series reference number 247709
2477101988-07-13 18:28 55° 15' 47" N  1° 29' 30" W  View metadata report for BODC series reference number 247710
2477221988-07-13 19:30 55° 15' 47" N  1° 29' 30" W  View metadata report for BODC series reference number 247722
2477341988-07-13 20:30 55° 15' 47" N  1° 29' 30" W  View metadata report for BODC series reference number 247734
2477461988-07-13 21:30 55° 15' 47" N  1° 29' 30" W  View metadata report for BODC series reference number 247746
2477581988-07-13 22:31 55° 15' 47" N  1° 29' 30" W  View metadata report for BODC series reference number 247758
2477711988-07-13 23:32 55° 15' 47" N  1° 29' 30" W  View metadata report for BODC series reference number 247771
2477831988-07-14 00:29 55° 15' 47" N  1° 29' 30" W  View metadata report for BODC series reference number 247783
2477951988-07-14 01:30 55° 15' 47" N  1° 29' 30" W  View metadata report for BODC series reference number 247795
2478021988-07-14 02:29 55° 15' 47" N  1° 29' 30" W  View metadata report for BODC series reference number 247802
2478141988-07-14 03:31 55° 15' 47" N  1° 29' 30" W  View metadata report for BODC series reference number 247814
2478261988-07-14 04:32 55° 15' 47" N  1° 29' 30" W  View metadata report for BODC series reference number 247826
2478381988-07-14 05:30 55° 15' 47" N  1° 29' 30" W  View metadata report for BODC series reference number 247838
2478511988-07-14 06:30 55° 15' 47" N  1° 29' 30" W  View metadata report for BODC series reference number 247851
2478631988-07-14 07:30 55° 15' 47" N  1° 29' 30" W  View metadata report for BODC series reference number 247863
2478751988-07-14 08:30 55° 15' 47" N  1° 29' 30" W  View metadata report for BODC series reference number 247875
2478871988-07-14 09:30 55° 15' 47" N  1° 29' 30" W  View metadata report for BODC series reference number 247887
2478991988-07-14 10:30 55° 15' 47" N  1° 29' 30" W  View metadata report for BODC series reference number 247899
2479061988-07-14 11:30 55° 15' 47" N  1° 29' 30" W  View metadata report for BODC series reference number 247906
2479181988-07-14 12:29 55° 15' 47" N  1° 29' 30" W  View metadata report for BODC series reference number 247918
2479311988-07-14 13:30 55° 15' 47" N  1° 29' 30" W  View metadata report for BODC series reference number 247931
2479431988-07-14 14:28 55° 15' 47" N  1° 29' 30" W  View metadata report for BODC series reference number 247943
2479551988-07-14 15:27 55° 15' 47" N  1° 29' 30" W  View metadata report for BODC series reference number 247955
2479671988-07-14 16:41 55° 15' 47" N  1° 29' 30" W  View metadata report for BODC series reference number 247967
2479791988-07-16 16:40 54° 59' 5" N  1° 21' 0" W  View metadata report for BODC series reference number 247979
2479801988-07-16 17:34 54° 59' 5" N  1° 21' 0" W  View metadata report for BODC series reference number 247980
2479921988-07-16 18:32 54° 59' 5" N  1° 21' 0" W  View metadata report for BODC series reference number 247992
2480061988-07-16 19:31 54° 59' 5" N  1° 21' 0" W  View metadata report for BODC series reference number 248006
2480181988-07-16 20:31 54° 59' 5" N  1° 21' 0" W  View metadata report for BODC series reference number 248018
2480311988-07-16 21:31 54° 59' 5" N  1° 21' 0" W  View metadata report for BODC series reference number 248031
2480431988-07-16 22:30 54° 59' 5" N  1° 21' 0" W  View metadata report for BODC series reference number 248043
2480551988-07-16 23:30 54° 59' 5" N  1° 21' 0" W  View metadata report for BODC series reference number 248055
2480671988-07-17 00:31 54° 59' 5" N  1° 21' 0" W  View metadata report for BODC series reference number 248067
2480791988-07-17 01:30 54° 59' 5" N  1° 21' 0" W  View metadata report for BODC series reference number 248079
2480801988-07-17 02:29 54° 59' 5" N  1° 21' 0" W  View metadata report for BODC series reference number 248080
2480921988-07-17 03:33 54° 59' 5" N  1° 21' 0" W  View metadata report for BODC series reference number 248092
2481111988-07-17 05:28 54° 59' 5" N  1° 21' 0" W  View metadata report for BODC series reference number 248111
2481231988-07-17 06:33 54° 59' 5" N  1° 21' 0" W  View metadata report for BODC series reference number 248123
2481351988-07-17 07:31 54° 59' 5" N  1° 21' 0" W  View metadata report for BODC series reference number 248135
2481471988-07-17 08:31 54° 59' 5" N  1° 21' 0" W  View metadata report for BODC series reference number 248147
2481591988-07-17 09:31 54° 59' 5" N  1° 21' 0" W  View metadata report for BODC series reference number 248159
2481601988-07-17 10:31 54° 59' 5" N  1° 21' 0" W  View metadata report for BODC series reference number 248160
2481721988-07-17 11:30 54° 59' 5" N  1° 21' 0" W  View metadata report for BODC series reference number 248172
2481841988-07-17 12:52 54° 59' 5" N  1° 21' 0" W  View metadata report for BODC series reference number 248184
2481961988-07-17 13:30 54° 59' 5" N  1° 21' 0" W  View metadata report for BODC series reference number 248196
2482031988-07-17 14:30 54° 59' 5" N  1° 21' 0" W  View metadata report for BODC series reference number 248203
2482151988-07-17 15:29 54° 59' 5" N  1° 21' 0" W  View metadata report for BODC series reference number 248215
2482271988-07-17 16:51 54° 59' 5" N  1° 21' 0" W  View metadata report for BODC series reference number 248227
2482391988-07-10 08:46 54° 55' 59" N  1° 19' 48" W  View metadata report for BODC series reference number 248239
2482401988-07-10 13:06 54° 55' 59" N  1° 18' 47" W  View metadata report for BODC series reference number 248240
2482521988-07-10 16:53 54° 56' 48" N  1° 16' 59" W  View metadata report for BODC series reference number 248252
2482641988-07-10 18:35 54° 57' 0" N  1° 16' 0" W  View metadata report for BODC series reference number 248264
2482761988-07-10 20:13 54° 57' 6" N  1° 15' 6" W  View metadata report for BODC series reference number 248276
2474451988-07-11 13:30 54° 56' 48" N  1° 16' 59" W  View metadata report for BODC series reference number 247445
2474571988-07-11 14:33 54° 56' 48" N  1° 16' 59" W  View metadata report for BODC series reference number 247457
2474691988-07-11 15:30 54° 56' 48" N  1° 16' 59" W  View metadata report for BODC series reference number 247469
2474701988-07-11 16:30 54° 56' 48" N  1° 16' 59" W  View metadata report for BODC series reference number 247470
2474821988-07-11 17:35 54° 56' 48" N  1° 16' 59" W  View metadata report for BODC series reference number 247482
2474941988-07-11 18:35 54° 56' 48" N  1° 16' 59" W  View metadata report for BODC series reference number 247494
2475011988-07-11 19:31 54° 56' 48" N  1° 16' 59" W  View metadata report for BODC series reference number 247501
2475131988-07-11 20:30 54° 56' 48" N  1° 16' 59" W  View metadata report for BODC series reference number 247513
2475251988-07-11 21:30 54° 56' 48" N  1° 16' 59" W  View metadata report for BODC series reference number 247525
2475371988-07-11 22:31 54° 56' 48" N  1° 16' 59" W  View metadata report for BODC series reference number 247537
2475491988-07-11 23:33 54° 56' 48" N  1° 16' 59" W  View metadata report for BODC series reference number 247549
2475501988-07-12 00:33 54° 56' 48" N  1° 16' 59" W  View metadata report for BODC series reference number 247550
2475621988-07-12 01:32 54° 56' 48" N  1° 16' 59" W  View metadata report for BODC series reference number 247562
2475741988-07-12 02:33 54° 56' 48" N  1° 16' 59" W  View metadata report for BODC series reference number 247574
2475861988-07-12 04:34 54° 56' 48" N  1° 16' 59" W  View metadata report for BODC series reference number 247586
2475981988-07-12 05:34 54° 56' 48" N  1° 16' 59" W  View metadata report for BODC series reference number 247598
2476051988-07-12 06:31 54° 56' 48" N  1° 16' 59" W  View metadata report for BODC series reference number 247605
2476171988-07-12 07:31 54° 56' 48" N  1° 16' 59" W  View metadata report for BODC series reference number 247617
2476291988-07-12 08:31 54° 56' 48" N  1° 16' 59" W  View metadata report for BODC series reference number 247629
2476301988-07-12 09:32 54° 56' 48" N  1° 16' 59" W  View metadata report for BODC series reference number 247630
2482881988-07-15 08:47 55° 7' 11" N  1° 23' 42" W  View metadata report for BODC series reference number 248288